Latest Weather Observations for Lord Howe Island Windy Point

IDN60801

Issued at 11:02 am EST Thursday 25 May 2017 (issued every 30 minutes, with the page automatically refreshed every 10 minutes)

About weather observations | Map of weather stations | Latest weather observations for NSW | Other Formats
Station Details ID: 200715 Name: LORD HOWE ISLAND WINDY POINT Lat: -31.54 Lon: 159.07 Height: 4.0 m
Data from the previous 72 hours. | See also: Recent months for locations in New South Wales
Date/Time
EST
Temp
°C
App
Temp
°C
Dew
Point
°C
Rel
Hum
%
Delta-T
°C
Wind Press
QNH
hPa
Press
MSL
hPa
Rain since
9am
mm
Dir  Spd
km/h
Gust
km/h
Spd
kts
Gust
kts
25/11:00am - - - - - SSW 33 39 18 21 - - -
25/10:30am - - - - - SW 32 41 17 22 - - -
25/10:00am - - - - - SW 33 39 18 21 - - -
25/09:30am - - - - - SW 33 39 18 21 - - -
25/09:00am - - - - - SW 37 44 20 24 - - -
25/08:30am - - - - - SSW 35 41 19 22 - - -
25/08:00am - - - - - SSW 32 39 17 21 - - -
25/07:30am - - - - - SW 30 35 16 19 - - -
25/07:00am - - - - - SW 30 37 16 20 - - -
25/06:30am - - - - - SW 32 35 17 19 - - -
25/06:00am - - - - - SSW 32 39 17 21 - - -
25/05:30am - - - - - SSW 33 41 18 22 - - -
25/05:00am - - - - - SSW 32 41 17 22 - - -
25/04:30am - - - - - SW 24 28 13 15 - - -
25/04:00am - - - - - SW 20 26 11 14 - - -
25/03:30am - - - - - SSW 24 28 13 15 - - -
25/03:00am - - - - - SSW 24 30 13 16 - - -
25/02:30am - - - - - SW 24 28 13 15 - - -
25/02:00am - - - - - SW 20 24 11 13 - - -
25/01:30am - - - - - SSW 24 30 13 16 - - -
25/01:00am - - - - - WSW 28 33 15 18 - - -
25/12:37am - - - - - NW 19 65 10 35 - - -
25/12:30am - - - - - NNW 17 22 9 12 - - -
25/12:00am - - - - - NW 20 24 11 13 - - -
 
Date/Time
EST
Temp
°C
App
Temp
°C
Dew
Point
°C
Rel
Hum
%
Delta-T
°C
Wind Press
QNH
hPa
Press
MSL
hPa
Rain since
9am
mm
Dir  Spd
km/h
Gust
km/h
Spd
kts
Gust
kts
24/11:30pm - - - - - NW 17 24 9 13 - - -
24/11:00pm - - - - - NW 19 26 10 14 - - -
24/10:30pm - - - - - NW 17 24 9 13 - - -
24/10:00pm - - - - - NW 19 26 10 14 - - -
24/09:30pm - - - - - NW 22 32 12 17 - - -
24/09:00pm - - - - - NW 13 22 7 12 - - -
24/08:30pm - - - - - NNW 7 13 4 7 - - -
24/08:00pm - - - - - NE 7 13 4 7 - - -
24/07:30pm - - - - - NNE 11 19 6 10 - - -
24/07:00pm - - - - - NNE 11 19 6 10 - - -
24/06:30pm - - - - - N 7 11 4 6 - - -
24/06:00pm - - - - - NNE 6 9 3 5 - - -
24/05:30pm - - - - - NNW 6 11 3 6 - - -
24/05:00pm - - - - - N 6 9 3 5 - - -
24/04:30pm - - - - - N 6 7 3 4 - - -
24/04:00pm - - - - - NNE 6 7 3 4 - - -
24/03:30pm - - - - - NNE 7 9 4 5 - - -
24/03:00pm - - - - - NE 7 11 4 6 - - -
24/02:30pm - - - - - NNE 7 11 4 6 - - -
24/02:00pm - - - - - NE 11 15 6 8 - - -
24/01:30pm - - - - - N 9 11 5 6 - - -
24/01:00pm - - - - - W 4 7 2 4 - - -
24/12:30pm - - - - - N 2 7 1 4 - - -
24/12:00pm - - - - - WSW 6 7 3 4 - - -
24/11:30am - - - - - WSW 6 7 3 4 - - -
24/11:00am - - - - - SSW 6 9 3 5 - - -
24/10:30am - - - - - SW 7 9 4 5 - - -
24/10:00am - - - - - SSW 7 9 4 5 - - -
24/09:30am - - - - - SW 7 9 4 5 - - -
24/09:00am - - - - - SW 6 9 3 5 - - -
24/08:30am - - - - - CALM 0 0 0 0 - - -
24/08:00am - - - - - CALM 0 0 0 0 - - -
24/07:30am - - - - - CALM 0 0 0 0 - - -
24/07:00am - - - - - CALM 0 0 0 0 - - -
24/06:30am - - - - - CALM 0 0 0 0 - - -
24/06:00am - - - - - CALM 0 0 0 0 - - -
24/05:30am - - - - - CALM 0 0 0 0 - - -
24/05:00am - - - - - CALM 0 0 0 0 - - -
24/04:30am - - - - - CALM 0 0 0 0 - - -
24/04:00am - - - - - CALM 0 0 0 0 - - -
24/03:30am - - - - - CALM 0 0 0 0 - - -
24/03:00am - - - - - CALM 0 0 0 0 - - -
24/02:30am - - - - - ENE 7 9 4 5 - - -
24/02:00am - - - - - ENE 7 7 4 4 - - -
24/01:30am - - - - - ENE 6 7 3 4 - - -
24/01:00am - - - - - ENE 4 6 2 3 - - -
24/12:30am - - - - - ENE 6 7 3 4 - - -
24/12:00am - - - - - ENE 7 9 4 5 - - -
 
Date/Time
EST
Temp
°C
App
Temp
°C
Dew
Point
°C
Rel
Hum
%
Delta-T
°C
Wind Press
QNH
hPa
Press
MSL
hPa
Rain since
9am
mm
Dir  Spd
km/h
Gust
km/h
Spd
kts
Gust
kts
23/11:30pm - - - - - ENE 7 9 4 5 - - -
23/11:00pm - - - - - E 7 9 4 5 - - -
23/10:30pm - - - - - ENE 6 7 3 4 - - -
23/10:00pm - - - - - ENE 7 9 4 5 - - -
23/09:30pm - - - - - ENE 6 7 3 4 - - -
23/09:00pm - - - - - E 9 13 5 7 - - -
23/08:30pm - - - - - E 9 13 5 7 - - -
23/08:00pm - - - - - ESE 11 15 6 8 - - -
23/07:30pm - - - - - ESE 13 17 7 9 - - -
23/07:00pm - - - - - ESE 15 20 8 11 - - -
23/06:30pm - - - - - ESE 15 20 8 11 - - -
23/06:00pm - - - - - ESE 13 19 7 10 - - -
23/05:30pm - - - - - E 17 26 9 14 - - -
23/05:00pm - - - - - ESE 17 24 9 13 - - -
23/04:30pm - - - - - E 15 20 8 11 - - -
23/04:00pm - - - - - ESE 9 17 5 9 - - -
23/03:30pm - - - - - ESE 13 20 7 11 - - -
23/03:00pm - - - - - SSE 7 17 4 9 - - -
23/02:30pm - - - - - ENE 9 17 5 9 - - -
23/02:00pm - - - - - W 9 13 5 7 - - -
23/01:30pm - - - - - NNW 6 9 3 5 - - -
23/01:00pm - - - - - SW 11 15 6 8 - - -
23/12:30pm - - - - - SW 9 13 5 7 - - -
23/12:00pm - - - - - WNW 6 9 3 5 - - -
23/11:30am - - - - - SW 11 15 6 8 - - -
23/11:00am - - - - - W 6 9 3 5 - - -
23/10:30am - - - - - SW 15 20 8 11 - - -
23/10:00am - - - - - WSW 9 15 5 8 - - -
23/09:30am - - - - - SSW 17 22 9 12 - - -
23/09:00am - - - - - SSW 17 20 9 11 - - -
23/08:30am - - - - - CALM 0 9 0 5 - - -
23/08:00am - - - - - E 6 13 3 7 - - -
23/07:30am - - - - - S 6 9 3 5 - - -
23/07:00am - - - - - CALM 0 0 0 0 - - -
23/06:30am - - - - - CALM 0 0 0 0 - - -
23/06:00am - - - - - SE 4 9 2 5 - - -
23/05:30am - - - - - SSW 11 15 6 8 - - -
23/05:00am - - - - - SSE 2 7 1 4 - - -
23/04:30am - - - - - S 9 15 5 8 - - -
23/04:00am - - - - - E 2 6 1 3 - - -
23/03:30am - - - - - E 6 7 3 4 - - -
23/03:00am - - - - - SSW 11 17 6 9 - - -
23/02:30am - - - - - CALM 0 0 0 0 - - -
23/02:00am - - - - - CALM 0 0 0 0 - - -
23/01:30am - - - - - CALM 0 0 0 0 - - -
23/01:00am - - - - - CALM 0 0 0 0 - - -
23/12:30am - - - - - CALM 0 0 0 0 - - -
23/12:00am - - - - - CALM 0 0 0 0 - - -
 
Date/Time
EST
Temp
°C
App
Temp
°C
Dew
Point
°C
Rel
Hum
%
Delta-T
°C
Wind Press
QNH
hPa
Press
MSL
hPa
Rain since
9am
mm
Dir  Spd
km/h
Gust
km/h
Spd
kts
Gust
kts
22/11:30pm - - - - - CALM 0 0 0 0 - - -
22/11:00pm - - - - - CALM 0 0 0 0 - - -
22/10:30pm - - - - - CALM 0 0 0 0 - - -
22/10:00pm - - - - - CALM 0 0 0 0 - - -
22/09:30pm - - - - - S 2 9 1 5 - - -
22/09:00pm - - - - - SSW 13 15 7 8 - - -
22/08:30pm - - - - - SW 15 17 8 9 - - -
22/08:00pm - - - - - SW 13 15 7 8 - - -
22/07:30pm - - - - - SW 15 17 8 9 - - -
22/07:00pm - - - - - WSW 7 11 4 6 - - -
22/06:30pm - - - - - CALM 0 0 0 0 - - -
22/06:00pm - - - - - CALM 0 0 0 0 - - -
22/05:30pm - - - - - CALM 0 0 0 0 - - -
22/05:00pm - - - - - NNW 2 6 1 3 - - -
22/04:30pm - - - - - WNW 6 7 3 4 - - -
22/04:00pm - - - - - WNW 7 11 4 6 - - -
22/03:30pm - - - - - CALM 0 0 0 0 - - -
22/03:00pm - - - - - WNW 15 19 8 10 - - -
22/02:30pm - - - - - N 7 11 4 6 - - -
22/02:00pm - - - - - SE 6 7 3 4 - - -
22/01:30pm - - - - - WSW 7 9 4 5 - - -
22/01:00pm - - - - - W 17 20 9 11 - - -
22/12:30pm - - - - - W 28 35 15 19 - - -
22/12:16pm - - - - - WNW 22 39 12 21 - - -
22/12:00pm - - - - - NNE 11 20 6 11 - - -
22/11:30am - - - - - N 9 20 5 11 - - -

Other Formats:

Comma delimited format used in spreadsheet applications
http://www.bom.gov.au/fwo/IDN60801/IDN60801.95995.axf

JavaScript Object Notation format (JSON) in row-major order
http://www.bom.gov.au/fwo/IDN60801/IDN60801.95995.json